Time;durP1;ratioP1;P1;durP2;ratioP2;P2;SDS_P1;SDS_P2;PMS_P1;PMS_P2;Temp;Humidity;BMP_temperature;BMP_pressure;BME280_temperature;BME280_humidity;BME280_pressure;Samples;Min_cycle;Max_cycle;Signal;HPM_P1;HPM_P2
2022/09/10 00:02:17;;;;;;;;;;;;;;;16.62;45.75;100778.72;5077735;28;997;-46
2022/09/10 00:04:43;;;;;;;;;;;;;;;16.64;45.55;100782.03;5081495;28;1186;-44
2022/09/10 00:07:08;;;;;;;;;;;;;;;17.67;47.58;100781.88;5077573;28;1005;-48
2022/09/10 00:09:34;;;;;;;;;;;;;;;17.17;47.90;100779.81;5077392;28;1120;-45
2022/09/10 00:11:59;;;;;;;;;;;;;;;16.88;47.70;100783.13;5077171;28;1099;-46
2022/09/10 00:14:25;;;;;;;;;;;;;;;16.80;47.25;100769.91;5079208;28;968;-45
2022/09/10 00:16:50;;;;;;;;;;;;;;;16.83;46.66;100776.78;5084612;28;872;-45
2022/09/10 00:19:16;;;;;;;;;;;;;;;16.75;46.58;100781.75;5077003;28;1965;-46
2022/09/10 00:21:43;;;;;;;;;;;;;;;16.67;46.58;100776.78;5076674;28;1155;-47
2022/09/10 00:24:08;;;;;;;;;;;;;;;16.64;46.26;100788.31;5070391;28;993;-47
2022/09/10 00:26:37;;;;;;;;;;;;;;;16.62;46.15;100790.53;5090799;28;1083;-45
2022/09/10 00:29:02;;;;;;;;;;;;;;;16.64;46.32;100787.50;5059189;28;969;-49
2022/09/10 00:31:29;;;;;;;;;;;;;;;16.71;45.82;100790.81;5077033;28;1112;-47
2022/09/10 00:33:54;;;;;;;;;;;;;;;17.44;47.12;100787.72;5077067;28;1008;-46
2022/09/10 00:36:21;;;;;;;;;;;;;;;16.91;47.69;100779.84;5077082;28;1057;-48
2022/09/10 00:38:46;;;;;;;;;;;;;;;16.96;46.97;100787.25;5076760;28;1918;-49
2022/09/10 00:41:13;;;;;;;;;;;;;;;16.80;46.74;100780.09;5081477;28;893;-48
2022/09/10 00:43:45;;;;;;;;;;;;;;;16.75;46.66;100770.75;5077027;28;1072;-47
2022/09/10 00:46:11;;;;;;;;;;;;;;;16.65;46.63;100770.75;5076376;28;1060;-44
2022/09/10 00:48:36;;;;;;;;;;;;;;;16.67;46.18;100765.00;5076901;28;1012;-45
2022/09/10 00:51:03;;;;;;;;;;;;;;;16.60;46.31;100770.75;5058832;28;1622;-47
2022/09/10 00:53:28;;;;;;;;;;;;;;;16.64;45.96;100760.06;5066518;28;945;-45
2022/09/10 00:55:54;;;;;;;;;;;;;;;16.66;45.96;100757.84;5076783;28;1099;-45
2022/09/10 00:58:21;;;;;;;;;;;;;;;16.64;45.75;100757.31;5058109;28;1536;-49
2022/09/10 01:00:46;;;;;;;;;;;;;;;17.33;47.13;100758.59;5076648;28;1982;-47
2022/09/10 01:03:12;;;;;;;;;;;;;;;16.96;47.92;100761.69;5061772;28;890;-49
2022/09/10 01:05:41;;;;;;;;;;;;;;;16.84;47.50;100753.72;5056043;28;1349;-44
2022/09/10 01:08:11;;;;;;;;;;;;;;;16.75;47.16;100754.28;5052379;28;1189;-43
2022/09/10 01:10:39;;;;;;;;;;;;;;;16.74;46.71;100749.06;5048457;28;1244;-47
2022/09/10 01:13:12;;;;;;;;;;;;;;;16.75;46.04;100751.53;5076735;28;970;-46
2022/09/10 01:15:56;;;;;;;;;;;;;;;17.20;46.78;100745.47;5084320;28;1063;-46
2022/09/10 01:18:27;;;;;;;;;;;;;;;17.39;48.12;100745.66;5075294;28;1132;-47
2022/09/10 01:21:01;;;;;;;;;;;;;;;17.05;47.92;100749.06;5058476;28;1965;-47
2022/09/10 01:24:05;;;;;;;;;;;;;;;17.00;47.39;100749.06;5076128;28;1222;-45
2022/09/10 01:26:50;;;;;;;;;;;;;;;16.90;46.69;100752.66;4970004;28;1300;-45
2022/09/10 01:29:18;;;;;;;;;;;;;;;16.84;46.68;100745.50;4983634;28;908;-44
2022/09/10 01:31:48;;;;;;;;;;;;;;;16.82;46.47;100739.47;5006721;28;1427;-45
2022/09/10 01:34:18;;;;;;;;;;;;;;;17.61;47.21;100734.31;5041536;28;1359;-49
2022/09/10 01:36:44;;;;;;;;;;;;;;;17.10;47.82;100738.88;5041810;28;1126;-49
2022/09/10 01:39:09;;;;;;;;;;;;;;;17.04;47.15;100733.66;5058182;28;1909;-46
2022/09/10 01:41:35;;;;;;;;;;;;;;;16.90;46.88;100726.03;5044795;28;1454;-48
2022/09/10 01:44:08;;;;;;;;;;;;;;;16.89;46.52;100724.38;5045514;28;1429;-45
2022/09/10 01:46:42;;;;;;;;;;;;;;;16.80;46.43;100725.97;5056558;28;1573;-46
2022/09/10 01:49:12;;;;;;;;;;;;;;;16.79;46.00;100723.50;5067466;28;1136;-46
2022/09/10 01:51:41;;;;;;;;;;;;;;;16.80;46.07;100719.69;5058340;28;1122;-48
2022/09/10 01:54:11;;;;;;;;;;;;;;;16.64;46.28;100718.88;5055764;28;1347;-46
2022/09/10 01:56:47;;;;;;;;;;;;;;;16.68;46.06;100717.22;5056089;28;1199;-49
2022/09/10 01:59:13;;;;;;;;;;;;;;;17.49;46.86;100720.91;5058060;28;1902;-42
2022/09/10 02:01:43;;;;;;;;;;;;;;;17.36;47.95;100718.75;5057357;28;1285;-44
2022/09/10 02:04:09;;;;;;;;;;;;;;;17.02;47.63;100722.97;5040947;28;1121;-49
2022/09/10 02:06:37;;;;;;;;;;;;;;;17.01;47.10;100715.00;5058808;28;1052;-45
2022/09/10 02:09:02;;;;;;;;;;;;;;;16.90;46.84;100708.69;5059797;28;1166;-45
2022/09/10 02:11:28;;;;;;;;;;;;;;;16.81;46.70;100710.34;5045261;28;1134;-44
2022/09/10 02:13:57;;;;;;;;;;;;;;;16.84;46.39;100709.78;5066581;28;1186;-44
2022/09/10 02:16:57;;;;;;;;;;;;;;;16.72;46.26;100710.09;5065797;28;1360;-46
2022/09/10 02:19:25;;;;;;;;;;;;;;;16.75;46.04;100706.78;5069622;28;2009;-44
2022/09/10 02:21:51;;;;;;;;;;;;;;;16.71;45.70;100713.94;5061645;28;1258;-49
2022/09/10 02:24:16;;;;;;;;;;;;;;;16.62;45.90;100708.19;5079635;28;977;-47
2022/09/10 02:26:42;;;;;;;;;;;;;;;17.66;47.15;100708.75;5079528;28;1195;-47
2022/09/10 02:29:08;;;;;;;;;;;;;;;17.03;48.11;100699.91;5044455;28;843;-47
2022/09/10 02:31:34;;;;;;;;;;;;;;;16.97;47.48;100701.03;5061619;28;997;-45
2022/09/10 02:34:02;;;;;;;;;;;;;;;17.00;46.79;100692.22;5061451;28;1230;-44
2022/09/10 02:36:27;;;;;;;;;;;;;;;16.84;46.54;100694.13;5061275;28;1937;-46
2022/09/10 02:38:55;;;;;;;;;;;;;;;16.88;46.11;100692.50;5061211;28;2007;-46
2022/09/10 02:41:24;;;;;;;;;;;;;;;16.76;46.21;100698.28;5068927;28;1216;-46
2022/09/10 02:43:51;;;;;;;;;;;;;;;16.73;46.23;100701.56;5064081;28;2290;-45
2022/09/10 02:46:17;;;;;;;;;;;;;;;16.67;45.82;100699.91;5055788;28;1591;-48
2022/09/10 02:48:42;;;;;;;;;;;;;;;17.37;47.10;100695.66;5058192;28;1221;-46
2022/09/10 02:51:08;;;;;;;;;;;;;;;16.96;47.49;100702.13;5075002;28;1213;-41
2022/09/10 02:53:35;;;;;;;;;;;;;;;18.88;42.88;100694.41;5048265;28;2320;-47
2022/09/10 02:56:03;;;;;;;;;;;;;;;15.37;54.04;100695.25;5059286;28;1961;-43
2022/09/10 02:58:30;;;;;;;;;;;;;;;16.43;50.24;100694.97;5057297;28;1998;-44
2022/09/10 03:01:07;;;;;;;;;;;;;;;16.84;47.93;100693.31;5066544;28;2046;-47
2022/09/10 03:03:33;;;;;;;;;;;;;;;16.84;47.58;100682.31;5060701;28;2134;-44
2022/09/10 03:05:59;;;;;;;;;;;;;;;16.87;46.87;100684.50;5075638;28;1958;-48
2022/09/10 03:08:25;;;;;;;;;;;;;;;16.74;46.76;100683.97;5075829;28;2038;-44
2022/09/10 03:10:50;;;;;;;;;;;;;;;17.66;47.74;100679.31;5073645;28;1570;-48
2022/09/10 03:13:16;;;;;;;;;;;;;;;17.09;48.34;100681.47;5051329;28;1280;-49
2022/09/10 03:15:42;;;;;;;;;;;;;;;17.07;47.72;100681.75;5060040;28;1036;-48
2022/09/10 03:18:08;;;;;;;;;;;;;;;16.88;47.38;100676.03;5078969;28;885;-50
2022/09/10 03:20:35;;;;;;;;;;;;;;;16.83;46.98;100683.41;5078337;28;1922;-48
2022/09/10 03:23:01;;;;;;;;;;;;;;;16.83;46.48;100686.16;5060839;28;1340;-45
2022/09/10 03:25:28;;;;;;;;;;;;;;;16.81;46.38;100691.94;5070044;28;1466;-49
2022/09/10 03:27:56;;;;;;;;;;;;;;;17.45;47.82;100693.16;5077884;28;1127;-47
2022/09/10 03:30:22;;;;;;;;;;;;;;;17.01;48.08;100688.38;5066056;28;1255;-47
2022/09/10 03:32:48;;;;;;;;;;;;;;;16.94;47.39;100690.56;5085323;28;1011;-47
2022/09/10 03:35:14;;;;;;;;;;;;;;;17.02;46.79;100698.25;5054212;28;1578;-46
2022/09/10 03:37:40;;;;;;;;;;;;;;;16.80;46.63;100689.47;5059566;28;1623;-47
2022/09/10 03:40:06;;;;;;;;;;;;;;;16.89;46.07;100693.34;5059576;28;1909;-44
2022/09/10 03:42:32;;;;;;;;;;;;;;;16.79;46.27;100696.06;5061736;28;1005;-46
2022/09/10 03:44:58;;;;;;;;;;;;;;;16.77;46.14;100699.91;5059690;28;1123;-47
2022/09/10 03:47:24;;;;;;;;;;;;;;;16.66;46.31;100709.28;5059827;28;1143;-47
2022/09/10 03:49:49;;;;;;;;;;;;;;;16.65;46.19;100706.78;5057714;28;1139;-43
2022/09/10 03:52:16;;;;;;;;;;;;;;;16.77;46.18;100704.56;5059956;28;1175;-47
2022/09/10 03:54:44;;;;;;;;;;;;;;;17.47;47.87;100708.56;5054713;28;1326;-45
2022/09/10 03:57:10;;;;;;;;;;;;;;;17.05;47.88;100705.91;5059752;28;1115;-48
2022/09/10 03:59:39;;;;;;;;;;;;;;;16.95;47.26;100705.94;5077416;28;1918;-44
2022/09/10 04:02:05;;;;;;;;;;;;;;;16.91;46.90;100704.84;5059685;28;1116;-46
2022/09/10 04:04:32;;;;;;;;;;;;;;;16.80;46.58;100697.72;5077743;28;1064;-45
2022/09/10 04:06:57;;;;;;;;;;;;;;;16.80;46.23;100693.03;5080099;28;1000;-47
2022/09/10 04:09:23;;;;;;;;;;;;;;;16.75;46.25;100695.81;5077156;28;1152;-49
2022/09/10 04:11:48;;;;;;;;;;;;;;;16.77;46.00;100702.66;5059684;28;1186;-46
2022/09/10 04:14:14;;;;;;;;;;;;;;;16.72;46.05;100702.66;5060594;28;2432;-47
2022/09/10 04:16:41;;;;;;;;;;;;;;;16.73;45.85;100701.56;5066278;28;1979;-49
2022/09/10 04:19:10;;;;;;;;;;;;;;;16.63;46.06;100712.53;5065618;28;2016;-44
2022/09/10 04:21:36;;;;;;;;;;;;;;;16.64;45.83;100710.66;5071029;28;2214;-48
2022/09/10 04:24:01;;;;;;;;;;;;;;;16.56;45.94;100710.09;5085635;28;1856;-48
2022/09/10 04:26:28;;;;;;;;;;;;;;;16.59;46.03;100709.53;5062056;28;1973;-47
2022/09/10 04:28:54;;;;;;;;;;;;;;;16.57;45.86;100706.25;5064018;28;2078;-49
2022/09/10 04:31:20;;;;;;;;;;;;;;;16.55;45.79;100713.94;5069146;28;1237;-47
2022/09/10 04:33:46;;;;;;;;;;;;;;;16.51;46.14;100707.34;5059072;28;1307;-46
2022/09/10 04:36:13;;;;;;;;;;;;;;;16.56;45.93;100707.34;5058656;28;1191;-45
2022/09/10 04:38:40;;;;;;;;;;;;;;;16.56;45.80;100717.50;5058724;28;1311;-45
2022/09/10 04:41:06;;;;;;;;;;;;;;;16.54;46.02;100708.72;5058426;28;1914;-46
2022/09/10 04:43:32;;;;;;;;;;;;;;;16.47;46.09;100716.41;5062395;28;1118;-49
2022/09/10 04:45:58;;;;;;;;;;;;;;;16.55;45.87;100719.44;5058516;28;1401;-46
2022/09/10 04:48:24;;;;;;;;;;;;;;;16.49;46.19;100711.47;5076614;28;1163;-45
2022/09/10 04:50:51;;;;;;;;;;;;;;;16.89;46.88;100715.31;5058282;28;1249;-50
2022/09/10 04:53:17;;;;;;;;;;;;;;;17.08;47.77;100710.03;5070056;28;1148;-48
2022/09/10 04:55:44;;;;;;;;;;;;;;;16.78;47.99;100711.72;5076822;28;1139;-49
2022/09/10 04:58:10;;;;;;;;;;;;;;;16.82;47.17;100717.50;5046590;28;1389;-49
2022/09/10 05:00:38;;;;;;;;;;;;;;;17.55;48.03;100718.97;5056082;28;2571;-47
2022/09/10 05:03:04;;;;;;;;;;;;;;;17.00;48.79;100718.84;5073785;28;1273;-47
2022/09/10 05:05:31;;;;;;;;;;;;;;;16.95;47.88;100716.94;5057802;28;1384;-47
2022/09/10 05:08:00;;;;;;;;;;;;;;;16.86;47.45;100724.09;5055463;28;1234;-46
2022/09/10 05:10:26;;;;;;;;;;;;;;;16.82;47.08;100726.53;5058247;28;1432;-43
2022/09/10 05:12:53;;;;;;;;;;;;;;;16.79;46.93;100718.03;5057993;28;1355;-46
2022/09/10 05:15:19;;;;;;;;;;;;;;;16.79;46.64;100718.88;5058223;28;1529;-45
2022/09/10 05:17:46;;;;;;;;;;;;;;;16.71;46.56;100701.00;5054635;28;1322;-46
2022/09/10 05:20:12;;;;;;;;;;;;;;;16.68;46.55;100712.56;5058183;28;1893;-47
2022/09/10 05:22:45;;;;;;;;;;;;;;;16.63;46.69;100709.00;5056590;28;1292;-47
2022/09/10 05:25:11;;;;;;;;;;;;;;;16.58;46.88;100704.34;5058129;28;1251;-47
2022/09/10 05:27:37;;;;;;;;;;;;;;;16.72;46.24;100704.59;5055423;28;1222;-47
2022/09/10 05:30:03;;;;;;;;;;;;;;;16.72;46.38;100699.09;5057691;28;1845;-48
2022/09/10 05:32:31;;;;;;;;;;;;;;;17.47;47.53;100689.31;5056390;28;1246;-44
2022/09/10 05:34:57;;;;;;;;;;;;;;;17.17;47.99;100688.34;5073151;28;1100;-48
2022/09/10 05:37:23;;;;;;;;;;;;;;;17.00;47.82;100686.72;5057821;28;2073;-49
2022/09/10 05:39:48;;;;;;;;;;;;;;;16.82;47.72;100690.03;5057500;28;1901;-47
2022/09/10 05:42:14;;;;;;;;;;;;;;;17.79;46.59;100699.88;5057221;28;1266;-45
2022/09/10 05:44:41;;;;;;;;;;;;;;;17.74;47.12;100697.13;5060179;28;1149;-45
2022/09/10 05:47:07;;;;;;;;;;;;;;;17.38;48.56;100703.63;5061980;28;1275;-46
2022/09/10 05:49:33;;;;;;;;;;;;;;;17.22;49.27;100710.28;5061893;28;1289;-46
2022/09/10 05:52:00;;;;;;;;;;;;;;;17.08;50.08;100710.88;5061580;28;1178;-48
2022/09/10 05:54:26;;;;;;;;;;;;;;;17.05;50.54;100707.84;5055233;28;2297;-47
2022/09/10 05:56:52;;;;;;;;;;;;;;;16.98;51.28;100697.16;5062023;28;1418;-49
2022/09/10 05:59:19;;;;;;;;;;;;;;;16.92;51.55;100681.78;5061871;28;2481;-48
2022/09/10 06:01:50;;;;;;;;;;;;;;;16.82;52.29;100690.84;5061850;28;1286;-49
2022/09/10 06:04:19;;;;;;;;;;;;;;;16.80;52.50;100703.19;5061705;28;1457;-45
2022/09/10 06:06:45;;;;;;;;;;;;;;;16.83;52.87;100697.16;5066529;28;2223;-47
2022/09/10 06:09:14;;;;;;;;;;;;;;;16.74;53.35;100703.19;5065376;28;1847;-47
2022/09/10 06:11:52;;;;;;;;;;;;;;;16.70;53.43;100710.34;5055360;28;1395;-45
2022/09/10 06:14:19;;;;;;;;;;;;;;;16.65;53.65;100702.13;5058158;28;1269;-48
2022/09/10 06:16:44;;;;;;;;;;;;;;;16.60;54.09;100705.69;5061427;28;1379;-47
2022/09/10 06:19:10;;;;;;;;;;;;;;;16.60;54.42;100713.09;5072884;28;1897;-45
2022/09/10 06:21:35;;;;;;;;;;;;;;;16.58;54.53;100707.06;5059899;28;1136;-44
2022/09/10 06:24:01;;;;;;;;;;;;;;;16.55;54.90;100710.34;5060704;28;1238;-44
2022/09/10 06:26:30;;;;;;;;;;;;;;;16.50;54.87;100711.19;5061182;28;1326;-44
2022/09/10 06:29:02;;;;;;;;;;;;;;;16.51;55.31;100712.00;5078548;28;2315;-48
2022/09/10 06:31:28;;;;;;;;;;;;;;;16.49;55.29;100700.47;5061011;28;1423;-46
2022/09/10 06:33:54;;;;;;;;;;;;;;;16.43;55.54;100697.72;5072594;28;1091;-46
2022/09/10 06:36:23;;;;;;;;;;;;;;;16.46;55.62;100709.28;5060087;28;1226;-48
2022/09/10 06:38:50;;;;;;;;;;;;;;;16.41;55.57;100702.69;5078801;28;1554;-46
2022/09/10 06:41:16;;;;;;;;;;;;;;;16.38;55.99;100713.38;5043788;28;2038;-43
2022/09/10 06:44:01;;;;;;;;;;;;;;;16.31;56.27;100701.84;5059410;28;1230;-44
2022/09/10 06:46:33;;;;;;;;;;;;;;;16.29;56.17;100693.88;5058478;28;1198;-49
2022/09/10 06:49:04;;;;;;;;;;;;;;;16.30;56.19;100698.28;5058419;28;1262;-44
2022/09/10 06:51:33;;;;;;;;;;;;;;;16.28;56.54;100685.94;5060505;28;1219;-42
2022/09/10 06:54:00;;;;;;;;;;;;;;;16.26;56.33;100691.69;5078480;28;1215;-44
2022/09/10 06:56:26;;;;;;;;;;;;;;;16.19;56.85;100696.63;5060530;28;1285;-42
2022/09/10 06:58:53;;;;;;;;;;;;;;;16.23;56.47;100690.31;5057641;28;2258;-48
2022/09/10 07:01:24;;;;;;;;;;;;;;;16.20;56.51;100685.38;5061621;28;1289;-45
2022/09/10 07:03:54;;;;;;;;;;;;;;;16.19;56.67;100682.91;5071049;28;1222;-45
2022/09/10 07:06:21;;;;;;;;;;;;;;;16.19;56.62;100693.88;5061844;28;1329;-45
2022/09/10 07:08:54;;;;;;;;;;;;;;;16.17;56.75;100696.91;5071863;28;1403;-47
2022/09/10 07:11:19;;;;;;;;;;;;;;;16.19;56.76;100696.63;5068171;28;1318;-48
2022/09/10 07:13:48;;;;;;;;;;;;;;;16.15;56.78;100695.53;5061853;28;1410;-47
2022/09/10 07:16:16;;;;;;;;;;;;;;;16.11;57.20;100691.69;5067108;28;1130;-46
2022/09/10 07:18:41;;;;;;;;;;;;;;;16.09;57.20;100708.41;5079829;28;1155;-49
2022/09/10 07:21:11;;;;;;;;;;;;;;;16.12;56.94;100715.25;5059171;28;1913;-47
2022/09/10 07:23:41;;;;;;;;;;;;;;;16.10;57.25;100715.53;5078602;28;1025;-46
2022/09/10 07:26:10;;;;;;;;;;;;;;;16.06;57.32;100718.00;5071992;28;1199;-47
2022/09/10 07:28:42;;;;;;;;;;;;;;;16.09;56.99;100716.66;5065926;28;1607;-48
2022/09/10 07:31:10;;;;;;;;;;;;;;;16.02;57.09;100721.53;5059508;28;1441;-47
2022/09/10 07:33:36;;;;;;;;;;;;;;;16.06;57.14;100718.00;5058798;28;1259;-45
2022/09/10 07:36:02;;;;;;;;;;;;;;;16.04;57.26;100722.94;5077560;28;1347;-47
2022/09/10 07:38:28;;;;;;;;;;;;;;;15.99;57.14;100717.44;5059968;28;1299;-48
2022/09/10 07:40:54;;;;;;;;;;;;;;;16.01;57.34;100707.03;5059873;28;1914;-46
2022/09/10 07:43:19;;;;;;;;;;;;;;;16.04;57.02;100706.47;5059581;28;1215;-45
2022/09/10 07:45:45;;;;;;;;;;;;;;;16.00;57.43;100708.09;5077638;28;1234;-44
2022/09/10 07:48:11;;;;;;;;;;;;;;;15.99;57.23;100708.38;5059902;28;1242;-47
2022/09/10 07:50:37;;;;;;;;;;;;;;;15.95;57.44;100708.13;5077544;28;1231;-49
2022/09/10 07:53:03;;;;;;;;;;;;;;;15.99;57.28;100709.22;5059544;28;1332;-49
2022/09/10 07:55:30;;;;;;;;;;;;;;;16.60;57.35;100704.88;5057478;28;1369;-45
2022/09/10 07:57:57;;;;;;;;;;;;;;;16.99;57.56;100709.78;5059044;28;1213;-46
2022/09/10 08:00:23;;;;;;;;;;;;;;;16.54;58.52;100703.22;5058439;28;2270;-45
2022/09/10 08:02:54;;;;;;;;;;;;;;;16.47;58.16;100700.75;5053681;28;1119;-48
2022/09/10 08:05:21;;;;;;;;;;;;;;;16.34;58.28;100684.81;5059178;28;1162;-48
2022/09/10 08:07:47;;;;;;;;;;;;;;;16.33;58.15;100684.00;5048697;28;1222;-47
2022/09/10 08:10:12;;;;;;;;;;;;;;;16.28;57.98;100691.44;5076278;28;1195;-44
2022/09/10 08:12:39;;;;;;;;;;;;;;;16.23;57.89;100697.75;5059521;28;1135;-45
2022/09/10 08:15:05;;;;;;;;;;;;;;;16.19;57.92;100700.19;5088040;28;1378;-45
2022/09/10 08:17:31;;;;;;;;;;;;;;;16.21;57.81;100697.19;5076537;28;1179;-46
2022/09/10 08:19:56;;;;;;;;;;;;;;;16.19;58.00;100699.38;5076549;28;1978;-44
2022/09/10 08:22:22;;;;;;;;;;;;;;;16.16;57.63;100698.00;5059071;28;1410;-46
2022/09/10 08:24:54;;;;;;;;;;;;;;;16.16;57.70;100691.66;5058782;28;1202;-44
2022/09/10 08:27:23;;;;;;;;;;;;;;;16.15;57.67;100681.81;5058091;28;1249;-44
2022/09/10 08:29:48;;;;;;;;;;;;;;;16.17;57.79;100690.59;5058680;28;2320;-46
2022/09/10 08:32:14;;;;;;;;;;;;;;;16.06;57.90;100697.97;5052774;28;1235;-42
2022/09/10 08:34:40;;;;;;;;;;;;;;;16.06;57.79;100707.03;5058698;28;1255;-48
2022/09/10 08:37:07;;;;;;;;;;;;;;;16.51;58.40;100695.53;5059519;28;1184;-43
2022/09/10 08:39:34;;;;;;;;;;;;;;;17.25;58.02;100693.22;5056472;28;1983;-46
2022/09/10 08:42:03;;;;;;;;;;;;;;;16.72;59.27;100690.88;5076508;28;1092;-49
2022/09/10 08:44:48;;;;;;;;;;;;;;;16.55;58.90;100691.13;5058170;28;1258;-44
2022/09/10 08:47:20;;;;;;;;;;;;;;;16.48;58.80;100688.69;5042550;28;1213;-46
2022/09/10 08:49:48;;;;;;;;;;;;;;;16.42;58.64;100687.03;5065325;28;1434;-46
2022/09/10 08:52:23;;;;;;;;;;;;;;;16.37;58.57;100685.13;5083493;28;941;-46
2022/09/10 08:54:52;;;;;;;;;;;;;;;16.37;58.28;100678.81;5053248;28;1151;-49
2022/09/10 08:57:23;;;;;;;;;;;;;;;16.32;58.16;100668.63;5058282;28;1245;-45
2022/09/10 08:59:51;;;;;;;;;;;;;;;16.28;58.18;100662.06;5057885;28;2371;-48
2022/09/10 09:02:29;;;;;;;;;;;;;;;16.26;57.91;100656.03;5058396;28;1318;-43
2022/09/10 09:05:22;;;;;;;;;;;;;;;16.23;57.90;100659.31;5058523;28;1231;-44
2022/09/10 09:07:50;;;;;;;;;;;;;;;16.21;58.20;100656.03;5055638;28;1491;-46
2022/09/10 09:10:17;;;;;;;;;;;;;;;16.21;57.91;100643.13;5052702;28;1212;-46
2022/09/10 09:13:03;;;;;;;;;;;;;;;16.17;58.14;100638.47;5077866;28;1340;-48
2022/09/10 09:15:32;;;;;;;;;;;;;;;16.23;58.08;100640.13;5024358;28;1106;-46
2022/09/10 09:18:27;;;;;;;;;;;;;;;16.22;57.90;100638.47;5057643;28;1221;-47
2022/09/10 09:20:52;;;;;;;;;;;;;;;16.15;57.96;100633.25;5041677;28;1968;-45
2022/09/10 09:23:21;;;;;;;;;;;;;;;16.17;57.91;100630.22;5057657;28;1340;-49
2022/09/10 09:25:50;;;;;;;;;;;;;;;16.16;57.88;100623.94;5058435;28;1356;-45
2022/09/10 09:28:22;;;;;;;;;;;;;;;16.10;58.14;100619.53;5075903;28;1201;-43
2022/09/10 09:30:48;;;;;;;;;;;;;;;16.15;58.22;100625.03;5061000;28;1419;-47
2022/09/10 09:33:16;;;;;;;;;;;;;;;16.13;58.09;100607.19;5055252;28;2099;-47
2022/09/10 09:35:47;;;;;;;;;;;;;;;16.08;58.15;100610.75;5069797;28;1166;-45
2022/09/10 09:38:17;;;;;;;;;;;;;;;16.12;58.43;100603.63;5044473;28;1199;-49
2022/09/10 09:40:44;;;;;;;;;;;;;;;16.10;58.15;100591.28;5055619;28;1957;-47
2022/09/10 09:43:22;;;;;;;;;;;;;;;16.04;58.47;100596.75;5050318;28;1282;-47
2022/09/10 09:45:49;;;;;;;;;;;;;;;16.07;58.24;100596.25;5041938;28;1221;-46
2022/09/10 09:48:16;;;;;;;;;;;;;;;17.16;59.21;100598.75;5078222;28;1278;-50
2022/09/10 09:50:44;;;;;;;;;;;;;;;17.04;59.77;100599.91;5064937;28;1170;-49
2022/09/10 09:53:14;;;;;;;;;;;;;;;16.70;59.70;100594.22;5073221;28;1245;-43
2022/09/10 09:55:43;;;;;;;;;;;;;;;16.55;59.17;100597.81;5057083;28;1016;-44
2022/09/10 09:58:22;;;;;;;;;;;;;;;16.42;59.21;100593.72;5074258;28;1183;-44
2022/09/10 10:00:48;;;;;;;;;;;;;;;16.42;58.94;100593.72;5075106;28;1922;-46
2022/09/10 10:03:15;;;;;;;;;;;;;;;16.38;58.50;100593.47;5066082;28;1204;-45
2022/09/10 10:05:41;;;;;;;;;;;;;;;16.37;58.30;100591.00;5080075;28;1026;-44
2022/09/10 10:08:18;;;;;;;;;;;;;;;16.34;58.35;100583.31;5061518;28;1243;-46
2022/09/10 10:10:44;;;;;;;;;;;;;;;16.30;58.32;100588.53;5064464;28;1036;-48
2022/09/10 10:13:19;;;;;;;;;;;;;;;16.28;58.28;100582.47;5054833;28;1136;-46
2022/09/10 10:15:45;;;;;;;;;;;;;;;16.23;58.00;100586.06;5075390;28;1151;-50
2022/09/10 10:18:31;;;;;;;;;;;;;;;16.29;58.15;100588.81;5075763;28;1067;-45
2022/09/10 10:21:12;;;;;;;;;;;;;;;16.24;58.07;100598.69;5070480;28;2307;-49
2022/09/10 10:23:38;;;;;;;;;;;;;;;16.19;58.22;100584.16;5052431;28;1037;-44
2022/09/10 10:26:17;;;;;;;;;;;;;;;16.22;57.68;100576.19;5075584;28;1107;-48
2022/09/10 10:28:46;;;;;;;;;;;;;;;16.18;57.98;100574.28;5076938;28;2014;-46
2022/09/10 10:31:11;;;;;;;;;;;;;;;16.12;58.09;100586.34;5093140;28;1044;-43
2022/09/10 10:33:52;;;;;;;;;;;;;;;16.12;58.27;100578.94;5066466;28;916;-48
2022/09/10 10:36:21;;;;;;;;;;;;;;;16.15;58.09;100569.34;5075839;28;1080;-50
2022/09/10 10:39:07;;;;;;;;;;;;;;;16.13;57.92;100571.53;5060546;28;1111;-47
2022/09/10 10:41:36;;;;;;;;;;;;;;;16.13;57.89;100571.53;5080072;28;1028;-47
2022/09/10 10:44:22;;;;;;;;;;;;;;;16.07;58.23;100557.84;5069964;28;977;-48
2022/09/10 10:46:52;;;;;;;;;;;;;;;16.09;57.91;100557.56;5074990;28;1100;-48
2022/09/10 10:49:24;;;;;;;;;;;;;;;16.01;58.08;100556.19;5061116;28;1013;-47
2022/09/10 10:51:55;;;;;;;;;;;;;;;16.08;58.00;100551.22;5078873;28;1080;-48
2022/09/10 10:54:31;;;;;;;;;;;;;;;16.06;58.07;100560.81;5078906;28;973;-48
2022/09/10 10:57:00;;;;;;;;;;;;;;;16.04;58.09;100544.66;5058874;28;1072;-45
2022/09/10 10:59:34;;;;;;;;;;;;;;;16.06;57.83;100542.47;5074622;28;2074;-44
2022/09/10 11:02:12;;;;;;;;;;;;;;;16.04;57.98;100557.56;5078966;28;1111;-47
2022/09/10 11:04:52;;;;;;;;;;;;;;;16.01;57.73;100560.84;5078655;28;1203;-48
2022/09/10 11:07:17;;;;;;;;;;;;;;;16.03;57.73;100547.66;5061275;28;1251;-46
2022/09/10 11:09:55;;;;;;;;;;;;;;;16.91;58.89;100545.56;5080432;28;1183;-46
2022/09/10 11:12:26;;;;;;;;;;;;;;;17.17;59.84;100542.72;5063122;28;1242;-49
2022/09/10 11:15:11;;;;;;;;;;;;;;;16.72;60.03;100540.66;5059121;28;1180;-45
2022/09/10 11:17:38;;;;;;;;;;;;;;;16.55;59.40;100542.91;5079238;28;1022;-47
2022/09/10 11:20:24;;;;;;;;;;;;;;;16.45;59.26;100538.25;5076486;28;1969;-47
2022/09/10 11:23:02;;;;;;;;;;;;;;;16.43;58.68;100545.97;5027010;28;1285;-47
2022/09/10 11:25:31;;;;;;;;;;;;;;;16.40;58.56;100544.59;5062196;28;1184;-45
2022/09/10 11:27:58;;;;;;;;;;;;;;;16.34;58.43;100547.63;5059482;28;1301;-46
2022/09/10 11:30:24;;;;;;;;;;;;;;;16.26;58.59;100546.28;5061722;28;1824;-45
2022/09/10 11:33:09;;;;;;;;;;;;;;;16.29;58.18;100542.97;5076317;28;1242;-46
2022/09/10 11:35:38;;;;;;;;;;;;;;;16.25;58.17;100542.69;5058202;28;1153;-45
2022/09/10 11:38:06;;;;;;;;;;;;;;;16.26;58.21;100540.81;5081695;28;1290;-47
2022/09/10 11:40:38;;;;;;;;;;;;;;;16.23;58.16;100547.66;5077947;28;1913;-44
2022/09/10 11:43:11;;;;;;;;;;;;;;;16.24;58.07;100548.47;5060796;28;1227;-46
2022/09/10 11:45:47;;;;;;;;;;;;;;;16.17;57.96;100540.53;5069778;28;1131;-48
2022/09/10 11:48:21;;;;;;;;;;;;;;;16.18;58.01;100533.13;5060049;28;1044;-49
2022/09/10 11:50:55;;;;;;;;;;;;;;;16.17;58.30;100532.31;5061273;28;1279;-47
2022/09/10 11:53:20;;;;;;;;;;;;;;;16.16;58.06;100513.34;5076737;28;1267;-47
2022/09/10 11:55:46;;;;;;;;;;;;;;;16.14;58.19;100504.59;5062109;28;1305;-49
2022/09/10 11:58:17;;;;;;;;;;;;;;;16.15;58.17;100512.56;5066648;28;1171;-44
2022/09/10 12:01:02;;;;;;;;;;;;;;;16.15;57.92;100506.25;5074788;28;2117;-48
2022/09/10 12:03:40;;;;;;;;;;;;;;;16.12;58.32;100501.28;5074457;28;1215;-43
2022/09/10 12:06:17;;;;;;;;;;;;;;;16.12;57.95;100491.16;5078811;28;1104;-46
2022/09/10 12:08:42;;;;;;;;;;;;;;;16.10;58.14;100490.59;5079884;28;993;-49
2022/09/10 12:11:14;;;;;;;;;;;;;;;16.05;57.98;100485.97;5079069;28;1017;-44
2022/09/10 12:13:40;;;;;;;;;;;;;;;16.12;58.42;100491.16;5058310;28;1397;-49
2022/09/10 12:16:08;;;;;;;;;;;;;;;17.34;59.82;100484.63;5062153;28;1088;-50
2022/09/10 12:18:41;;;;;;;;;;;;;;;16.79;60.35;100488.19;5079488;28;1373;-49
2022/09/10 12:21:33;;;;;;;;;;;;;;;16.61;59.94;100486.91;5053364;28;1979;-44
2022/09/10 12:23:59;;;;;;;;;;;;;;;16.50;59.33;100479.81;5072641;28;1278;-47
2022/09/10 12:26:25;;;;;;;;;;;;;;;16.45;59.36;100482.56;5077030;28;1251;-48
2022/09/10 12:28:50;;;;;;;;;;;;;;;16.41;58.94;100480.38;5079847;28;1819;-49
2022/09/10 12:31:16;;;;;;;;;;;;;;;16.38;58.57;100475.47;5073299;28;1257;-46
2022/09/10 12:33:45;;;;;;;;;;;;;;;16.37;58.41;100465.59;5078894;28;1302;-45
2022/09/10 12:36:26;;;;;;;;;;;;;;;16.32;58.19;100467.53;5082354;28;1079;-47
2022/09/10 12:39:16;;;;;;;;;;;;;;;16.29;58.32;100460.66;5078659;28;1340;-46
2022/09/10 12:41:41;;;;;;;;;;;;;;;16.27;58.12;100465.63;5056706;28;1140;-48
2022/09/10 12:44:26;;;;;;;;;;;;;;;16.25;58.17;100462.31;5077753;28;1234;-49
2022/09/10 12:47:10;;;;;;;;;;;;;;;16.21;58.22;100466.72;5075848;28;1399;-46
2022/09/10 12:49:56;;;;;;;;;;;;;;;16.19;58.03;100457.97;5076663;28;1064;-48
2022/09/10 12:52:41;;;;;;;;;;;;;;;16.19;57.89;100453.28;5076016;28;1235;-48
2022/09/10 12:55:30;;;;;;;;;;;;;;;16.19;58.01;100449.75;5077998;28;1215;-45
2022/09/10 12:57:57;;;;;;;;;;;;;;;16.13;57.85;100448.09;5070287;28;1080;-47
2022/09/10 13:00:24;;;;;;;;;;;;;;;16.10;57.87;100443.16;5078032;28;1910;-48